sensor_id;sensor_type;location;lat;lon;timestamp;pressure;altitude;pressure_sealevel;temperature;humidity
73551;BME280;61816;53.582;10.096;2023-05-31T00:00:21;54292.75;;;-144.73;96.41
73551;BME280;61816;53.582;10.096;2023-05-31T00:02:46;54251.72;;;-144.73;96.92
73551;BME280;61816;53.582;10.096;2023-05-31T00:05:12;54286.59;;;-144.73;95.47
73551;BME280;61816;53.582;10.096;2023-05-31T00:07:37;54292.75;;;-144.73;96.00
73551;BME280;61816;53.582;10.096;2023-05-31T00:10:03;54276.34;;;-144.73;96.11
73551;BME280;61816;53.582;10.096;2023-05-31T00:12:28;54251.72;;;-144.73;98.26
73551;BME280;61816;53.582;10.096;2023-05-31T00:14:53;54247.59;;;-144.73;97.03
73551;BME280;61816;53.582;10.096;2023-05-31T00:17:19;54227.09;;;-144.73;98.01
73551;BME280;61816;53.582;10.096;2023-05-31T00:19:44;54296.88;;;-144.73;97.52
73551;BME280;61816;53.582;10.096;2023-05-31T00:22:09;54251.72;;;-144.73;96.45
73551;BME280;61816;53.582;10.096;2023-05-31T00:24:36;54276.34;;;-144.73;96.71
73551;BME280;61816;53.582;10.096;2023-05-31T00:27:01;54288.66;;;-144.73;100.00
73551;BME280;61816;53.582;10.096;2023-05-31T00:29:27;54296.88;;;-144.73;100.00
73551;BME280;61816;53.582;10.096;2023-05-31T00:31:52;54288.66;;;-144.73;100.00
73551;BME280;61816;53.582;10.096;2023-05-31T00:34:17;54253.75;;;-144.73;100.00
73551;BME280;61816;53.582;10.096;2023-05-31T00:36:43;54276.34;;;-144.73;100.00
73551;BME280;61816;53.582;10.096;2023-05-31T00:39:08;54259.91;;;-144.73;100.00
73551;BME280;61816;53.582;10.096;2023-05-31T00:41:33;54288.66;;;-144.73;99.40
73551;BME280;61816;53.582;10.096;2023-05-31T00:43:59;54288.66;;;-144.73;97.82
73551;BME280;61816;53.582;10.096;2023-05-31T00:46:38;54255.81;;;-144.73;97.72
73551;BME280;61816;53.582;10.096;2023-05-31T00:49:05;54292.75;;;-144.73;99.62
73551;BME280;61816;53.582;10.096;2023-05-31T00:51:32;54255.81;;;-144.73;100.00
73551;BME280;61816;53.582;10.096;2023-05-31T00:53:59;54298.91;;;-144.73;100.00
73551;BME280;61816;53.582;10.096;2023-05-31T00:56:25;54284.56;;;-144.73;100.00
73551;BME280;61816;53.582;10.096;2023-05-31T00:58:51;54259.91;;;-144.73;100.00
73551;BME280;61816;53.582;10.096;2023-05-31T01:01:18;54276.34;;;-144.73;100.00
73551;BME280;61816;53.582;10.096;2023-05-31T01:03:45;54259.91;;;-144.73;100.00
73551;BME280;61816;53.582;10.096;2023-05-31T01:06:10;54284.56;;;-144.73;100.00
73551;BME280;61816;53.582;10.096;2023-05-31T01:08:37;54276.34;;;-144.73;100.00
73551;BME280;61816;53.582;10.096;2023-05-31T01:14:38;54288.66;;;-144.73;100.00
73551;BME280;61816;53.582;10.096;2023-05-31T01:17:12;54300.97;;;-144.73;100.00
73551;BME280;61816;53.582;10.096;2023-05-31T01:19:45;54296.88;;;-144.73;100.00
73551;BME280;61816;53.582;10.096;2023-05-31T01:22:26;54321.50;;;-144.73;100.00
73551;BME280;61816;53.582;10.096;2023-05-31T01:25:14;54264.03;;;-144.73;100.00
73551;BME280;61816;53.582;10.096;2023-05-31T01:27:47;54317.38;;;-144.73;100.00
73551;BME280;61816;53.582;10.096;2023-05-31T01:30:13;54292.75;;;-144.73;100.00
73551;BME280;61816;53.582;10.096;2023-05-31T01:32:40;54259.91;;;-144.73;100.00
73551;BME280;61816;53.582;10.096;2023-05-31T01:35:06;54247.59;;;-144.73;100.00
73551;BME280;61816;53.582;10.096;2023-05-31T01:37:31;54300.97;;;-144.73;100.00
73551;BME280;61816;53.582;10.096;2023-05-31T01:39:56;54268.13;;;-144.73;100.00
73551;BME280;61816;53.582;10.096;2023-05-31T01:42:22;54284.56;;;-144.73;100.00
73551;BME280;61816;53.582;10.096;2023-05-31T01:44:49;54342.03;;;-144.73;100.00
73551;BME280;61816;53.582;10.096;2023-05-31T01:47:17;54259.91;;;-144.73;100.00
73551;BME280;61816;53.582;10.096;2023-05-31T01:49:42;54300.97;;;-144.73;100.00
73551;BME280;61816;53.582;10.096;2023-05-31T01:52:10;54313.28;;;-144.73;100.00
73551;BME280;61816;53.582;10.096;2023-05-31T01:54:37;54309.19;;;-144.73;100.00
73551;BME280;61816;53.582;10.096;2023-05-31T01:57:04;54251.72;;;-144.73;100.00
73551;BME280;61816;53.582;10.096;2023-05-31T01:59:32;54268.13;;;-144.73;100.00
73551;BME280;61816;53.582;10.096;2023-05-31T02:01:59;54276.34;;;-144.73;100.00
73551;BME280;61816;53.582;10.096;2023-05-31T02:04:24;54294.81;;;-144.73;100.00
73551;BME280;61816;53.582;10.096;2023-05-31T02:06:50;54276.34;;;-144.73;100.00
73551;BME280;61816;53.582;10.096;2023-05-31T02:09:18;54284.56;;;-144.73;100.00
73551;BME280;61816;53.582;10.096;2023-05-31T02:11:44;54311.22;;;-144.73;100.00
73551;BME280;61816;53.582;10.096;2023-05-31T02:14:09;54325.59;;;-144.73;100.00
73551;BME280;61816;53.582;10.096;2023-05-31T02:16:35;54288.66;;;-144.73;100.00
73551;BME280;61816;53.582;10.096;2023-05-31T02:19:00;54247.59;;;-144.73;100.00
73551;BME280;61816;53.582;10.096;2023-05-31T02:21:26;54261.97;;;-144.73;100.00
73551;BME280;61816;53.582;10.096;2023-05-31T02:23:52;54292.75;;;-144.73;100.00
73551;BME280;61816;53.582;10.096;2023-05-31T02:26:18;54276.34;;;-144.73;100.00
73551;BME280;61816;53.582;10.096;2023-05-31T02:28:44;54251.72;;;-144.73;100.00
73551;BME280;61816;53.582;10.096;2023-05-31T02:31:09;54284.56;;;-144.73;100.00
73551;BME280;61816;53.582;10.096;2023-05-31T02:33:35;54249.66;;;-144.73;100.00
73551;BME280;61816;53.582;10.096;2023-05-31T02:36:00;54280.44;;;-144.73;100.00
73551;BME280;61816;53.582;10.096;2023-05-31T02:38:27;54259.91;;;-144.73;100.00
73551;BME280;61816;53.582;10.096;2023-05-31T02:40:52;54255.81;;;-144.73;100.00
73551;BME280;61816;53.582;10.096;2023-05-31T02:43:17;54325.59;;;-144.73;100.00
73551;BME280;61816;53.582;10.096;2023-05-31T02:45:43;54292.75;;;-144.73;100.00
73551;BME280;61816;53.582;10.096;2023-05-31T02:48:08;54292.75;;;-144.73;100.00
73551;BME280;61816;53.582;10.096;2023-05-31T02:50:33;54288.66;;;-144.73;100.00
73551;BME280;61816;53.582;10.096;2023-05-31T02:52:59;54255.81;;;-144.73;100.00
73551;BME280;61816;53.582;10.096;2023-05-31T02:55:30;54296.88;;;-144.73;100.00
73551;BME280;61816;53.582;10.096;2023-05-31T02:57:55;54288.66;;;-144.73;100.00
73551;BME280;61816;53.582;10.096;2023-05-31T03:00:21;54300.97;;;-144.73;100.00
73551;BME280;61816;53.582;10.096;2023-05-31T03:02:46;54305.06;;;-144.73;100.00
73551;BME280;61816;53.582;10.096;2023-05-31T03:05:11;54300.97;;;-144.73;100.00
73551;BME280;61816;53.582;10.096;2023-05-31T03:07:36;54317.38;;;-144.73;100.00
73551;BME280;61816;53.582;10.096;2023-05-31T03:10:02;54276.34;;;-144.73;100.00
73551;BME280;61816;53.582;10.096;2023-05-31T03:12:30;54278.41;;;-144.73;100.00
73551;BME280;61816;53.582;10.096;2023-05-31T03:14:56;54303.03;;;-144.73;100.00
73551;BME280;61816;53.582;10.096;2023-05-31T03:17:21;54288.66;;;-144.73;100.00
73551;BME280;61816;53.582;10.096;2023-05-31T03:19:47;54266.06;;;-144.73;100.00
73551;BME280;61816;53.582;10.096;2023-05-31T03:22:12;54292.75;;;-144.73;100.00
73551;BME280;61816;53.582;10.096;2023-05-31T03:24:38;54259.91;;;-144.73;100.00
73551;BME280;61816;53.582;10.096;2023-05-31T03:27:03;54251.72;;;-144.73;100.00
73551;BME280;61816;53.582;10.096;2023-05-31T03:29:29;54276.34;;;-144.73;100.00
73551;BME280;61816;53.582;10.096;2023-05-31T03:31:54;54268.13;;;-144.73;100.00
73551;BME280;61816;53.582;10.096;2023-05-31T03:34:20;54292.75;;;-144.73;100.00
73551;BME280;61816;53.582;10.096;2023-05-31T03:36:46;54292.75;;;-144.73;100.00
73551;BME280;61816;53.582;10.096;2023-05-31T03:39:12;54259.91;;;-144.73;100.00
73551;BME280;61816;53.582;10.096;2023-05-31T03:41:37;54329.72;;;-144.73;100.00
73551;BME280;61816;53.582;10.096;2023-05-31T03:44:02;54276.34;;;-144.73;100.00
73551;BME280;61816;53.582;10.096;2023-05-31T03:46:28;54303.03;;;-144.73;100.00
73551;BME280;61816;53.582;10.096;2023-05-31T03:48:53;54292.75;;;-144.73;100.00
73551;BME280;61816;53.582;10.096;2023-05-31T03:51:18;54305.06;;;-144.73;100.00
73551;BME280;61816;53.582;10.096;2023-05-31T03:53:44;54255.81;;;-144.73;100.00
73551;BME280;61816;53.582;10.096;2023-05-31T03:56:10;54284.56;;;-144.73;100.00
73551;BME280;61816;53.582;10.096;2023-05-31T03:58:35;54300.97;;;-144.73;100.00
73551;BME280;61816;53.582;10.096;2023-05-31T04:01:00;54239.41;;;-144.73;100.00
73551;BME280;61816;53.582;10.096;2023-05-31T04:03:27;54325.59;;;-144.73;100.00
73551;BME280;61816;53.582;10.096;2023-05-31T04:05:53;54268.13;;;-144.73;100.00
73551;BME280;61816;53.582;10.096;2023-05-31T04:08:18;54253.75;;;-144.73;100.00
73551;BME280;61816;53.582;10.096;2023-05-31T04:10:43;54296.88;;;-144.73;100.00
73551;BME280;61816;53.582;10.096;2023-05-31T04:13:09;54296.88;;;-144.73;100.00
73551;BME280;61816;53.582;10.096;2023-05-31T04:15:35;54313.28;;;-144.73;100.00
73551;BME280;61816;53.582;10.096;2023-05-31T04:18:00;54321.50;;;-144.73;100.00
73551;BME280;61816;53.582;10.096;2023-05-31T04:20:26;54317.38;;;-144.73;100.00
73551;BME280;61816;53.582;10.096;2023-05-31T04:22:52;54284.56;;;-144.73;100.00
73551;BME280;61816;53.582;10.096;2023-05-31T04:25:21;54280.44;;;-144.73;100.00
73551;BME280;61816;53.582;10.096;2023-05-31T04:27:47;54264.03;;;-144.73;100.00
73551;BME280;61816;53.582;10.096;2023-05-31T04:30:12;54305.06;;;-144.73;100.00
73551;BME280;61816;53.582;10.096;2023-05-31T04:32:39;54276.34;;;-144.73;100.00
73551;BME280;61816;53.582;10.096;2023-05-31T04:35:05;54325.59;;;-144.73;100.00
73551;BME280;61816;53.582;10.096;2023-05-31T04:37:31;54296.88;;;-144.73;100.00
73551;BME280;61816;53.582;10.096;2023-05-31T04:39:58;54288.66;;;-144.73;100.00
73551;BME280;61816;53.582;10.096;2023-05-31T04:42:27;54317.38;;;-144.73;100.00
73551;BME280;61816;53.582;10.096;2023-05-31T04:44:57;54280.44;;;-144.73;100.00
73551;BME280;61816;53.582;10.096;2023-05-31T04:47:24;54292.75;;;-144.73;100.00
73551;BME280;61816;53.582;10.096;2023-05-31T04:49:52;54321.50;;;-144.73;100.00
73551;BME280;61816;53.582;10.096;2023-05-31T04:52:19;54296.88;;;-144.73;100.00
73551;BME280;61816;53.582;10.096;2023-05-31T04:54:45;54296.88;;;-144.73;100.00
73551;BME280;61816;53.582;10.096;2023-05-31T04:57:10;54276.34;;;-144.73;100.00
73551;BME280;61816;53.582;10.096;2023-05-31T04:59:36;54276.34;;;-144.73;100.00
73551;BME280;61816;53.582;10.096;2023-05-31T05:02:01;54317.38;;;-144.73;100.00
73551;BME280;61816;53.582;10.096;2023-05-31T05:04:27;54268.13;;;-144.73;100.00
73551;BME280;61816;53.582;10.096;2023-05-31T05:06:52;54298.91;;;-144.73;100.00
73551;BME280;61816;53.582;10.096;2023-05-31T05:09:17;54321.50;;;-144.73;100.00
73551;BME280;61816;53.582;10.096;2023-05-31T05:11:43;54305.06;;;-144.73;100.00
73551;BME280;61816;53.582;10.096;2023-05-31T05:14:08;54317.38;;;-144.73;100.00
73551;BME280;61816;53.582;10.096;2023-05-31T05:16:34;54300.97;;;-144.73;100.00
73551;BME280;61816;53.582;10.096;2023-05-31T05:18:59;54317.38;;;-144.73;100.00
73551;BME280;61816;53.582;10.096;2023-05-31T05:21:25;54309.19;;;-144.73;100.00
73551;BME280;61816;53.582;10.096;2023-05-31T05:23:50;54288.66;;;-144.73;100.00
73551;BME280;61816;53.582;10.096;2023-05-31T05:26:15;54288.66;;;-144.73;100.00
73551;BME280;61816;53.582;10.096;2023-05-31T05:28:41;54305.06;;;-144.73;100.00
73551;BME280;61816;53.582;10.096;2023-05-31T05:31:06;54305.06;;;-144.73;100.00
73551;BME280;61816;53.582;10.096;2023-05-31T05:33:31;54300.97;;;-144.73;100.00
73551;BME280;61816;53.582;10.096;2023-05-31T05:35:57;54309.19;;;-144.73;100.00
73551;BME280;61816;53.582;10.096;2023-05-31T05:38:22;54313.28;;;-144.73;100.00
73551;BME280;61816;53.582;10.096;2023-05-31T05:40:47;54276.34;;;-144.73;100.00
73551;BME280;61816;53.582;10.096;2023-05-31T05:43:13;54294.81;;;-144.73;100.00
73551;BME280;61816;53.582;10.096;2023-05-31T05:45:39;54300.97;;;-144.73;100.00
73551;BME280;61816;53.582;10.096;2023-05-31T05:48:04;54288.66;;;-144.73;100.00
73551;BME280;61816;53.582;10.096;2023-05-31T05:50:30;54292.75;;;-144.73;100.00
73551;BME280;61816;53.582;10.096;2023-05-31T05:52:55;54288.66;;;-144.73;100.00
73551;BME280;61816;53.582;10.096;2023-05-31T05:55:20;54276.34;;;-144.73;100.00
73551;BME280;61816;53.582;10.096;2023-05-31T05:57:46;54296.88;;;-144.73;100.00
73551;BME280;61816;53.582;10.096;2023-05-31T06:00:12;54276.34;;;-144.73;100.00
73551;BME280;61816;53.582;10.096;2023-05-31T06:02:39;54292.75;;;-144.73;100.00
73551;BME280;61816;53.582;10.096;2023-05-31T06:05:06;54296.88;;;-144.73;100.00
73551;BME280;61816;53.582;10.096;2023-05-31T06:07:32;54288.66;;;-144.73;100.00
73551;BME280;61816;53.582;10.096;2023-05-31T06:09:57;54329.72;;;-144.73;100.00
73551;BME280;61816;53.582;10.096;2023-05-31T06:12:22;54264.03;;;-144.73;100.00
73551;BME280;61816;53.582;10.096;2023-05-31T06:14:48;54309.19;;;-144.73;100.00
73551;BME280;61816;53.582;10.096;2023-05-31T06:17:13;54325.59;;;-144.73;100.00
73551;BME280;61816;53.582;10.096;2023-05-31T06:19:39;54251.72;;;-144.73;100.00
73551;BME280;61816;53.582;10.096;2023-05-31T06:22:04;54296.88;;;-144.73;100.00
73551;BME280;61816;53.582;10.096;2023-05-31T06:24:29;54321.50;;;-144.73;100.00
73551;BME280;61816;53.582;10.096;2023-05-31T06:26:55;54300.97;;;-144.73;100.00
73551;BME280;61816;53.582;10.096;2023-05-31T06:29:20;54282.50;;;-144.73;98.96
73551;BME280;61816;53.582;10.096;2023-05-31T06:31:46;54288.66;;;-144.73;98.49
73551;BME280;61816;53.582;10.096;2023-05-31T06:34:11;54280.44;;;-144.73;95.98
73551;BME280;61816;53.582;10.096;2023-05-31T06:36:36;54311.22;;;-144.73;90.35
73551;BME280;61816;53.582;10.096;2023-05-31T06:39:02;54300.97;;;-144.73;89.56
73551;BME280;61816;53.582;10.096;2023-05-31T06:41:28;54268.13;;;-144.73;89.65
73551;BME280;61816;53.582;10.096;2023-05-31T06:43:54;54276.34;;;-144.73;88.71
73551;BME280;61816;53.582;10.096;2023-05-31T06:46:20;54276.34;;;-144.73;84.74
73551;BME280;61816;53.582;10.096;2023-05-31T06:48:45;54268.13;;;-144.73;84.70
73551;BME280;61816;53.582;10.096;2023-05-31T06:51:10;54251.72;;;-144.73;82.34
73551;BME280;61816;53.582;10.096;2023-05-31T06:53:36;54280.44;;;-144.73;82.21
73551;BME280;61816;53.582;10.096;2023-05-31T06:56:01;54251.72;;;-144.73;83.12
73551;BME280;61816;53.582;10.096;2023-05-31T06:58:30;54276.34;;;-144.73;82.37
73551;BME280;61816;53.582;10.096;2023-05-31T07:00:56;54268.13;;;-144.73;82.51
73551;BME280;61816;53.582;10.096;2023-05-31T07:03:22;54276.34;;;-144.73;78.19
73551;BME280;61816;53.582;10.096;2023-05-31T07:05:47;54342.03;;;-144.73;73.54
73551;BME280;61816;53.582;10.096;2023-05-31T07:08:13;54276.34;;;-144.73;72.55
73551;BME280;61816;53.582;10.096;2023-05-31T07:10:41;54276.34;;;-144.73;71.62
73551;BME280;61816;53.582;10.096;2023-05-31T07:13:06;54284.56;;;-144.73;73.44
73551;BME280;61816;53.582;10.096;2023-05-31T07:15:33;54305.06;;;-144.73;70.73
73551;BME280;61816;53.582;10.096;2023-05-31T07:17:58;54280.44;;;-144.73;70.43
73551;BME280;61816;53.582;10.096;2023-05-31T07:20:24;54288.66;;;-144.73;70.12
73551;BME280;61816;53.582;10.096;2023-05-31T07:22:49;54288.66;;;-144.73;69.15
73551;BME280;61816;53.582;10.096;2023-05-31T07:25:16;54300.97;;;-144.73;67.30
73551;BME280;61816;53.582;10.096;2023-05-31T07:27:41;54222.97;;;-144.73;67.84
73551;BME280;61816;53.582;10.096;2023-05-31T07:30:07;54229.13;;;-144.73;65.58
73551;BME280;61816;53.582;10.096;2023-05-31T07:32:33;54255.81;;;-144.73;66.25
73551;BME280;61816;53.582;10.096;2023-05-31T07:34:58;54231.19;;;-144.73;64.56
73551;BME280;61816;53.582;10.096;2023-05-31T07:37:23;54247.59;;;-144.73;64.56
73551;BME280;61816;53.582;10.096;2023-05-31T07:39:49;54251.72;;;-144.73;60.38
73551;BME280;61816;53.582;10.096;2023-05-31T07:42:14;54251.72;;;-144.73;57.95
73551;BME280;61816;53.582;10.096;2023-05-31T07:44:40;54268.13;;;-144.73;57.30
73551;BME280;61816;53.582;10.096;2023-05-31T07:47:05;54206.56;;;-144.73;57.15
73551;BME280;61816;53.582;10.096;2023-05-31T07:49:31;54202.44;;;-144.73;57.53
73551;BME280;61816;53.582;10.096;2023-05-31T07:51:56;54268.13;;;-144.73;55.94
73551;BME280;61816;53.582;10.096;2023-05-31T07:54:21;54231.19;;;-144.73;53.69
73551;BME280;61816;53.582;10.096;2023-05-31T07:56:47;54261.97;;;-144.73;53.43
73551;BME280;61816;53.582;10.096;2023-05-31T07:59:12;54247.59;;;-144.73;52.24
73551;BME280;61816;53.582;10.096;2023-05-31T08:01:38;54243.50;;;-144.73;49.80
73551;BME280;61816;53.582;10.096;2023-05-31T08:04:08;54229.13;;;-144.73;52.40
73551;BME280;61816;53.582;10.096;2023-05-31T08:06:34;54200.41;;;-144.73;53.63
73551;BME280;61816;53.582;10.096;2023-05-31T08:09:00;54268.13;;;-144.73;52.42
73551;BME280;61816;53.582;10.096;2023-05-31T08:11:26;54243.50;;;-144.73;52.59
73551;BME280;61816;53.582;10.096;2023-05-31T08:13:52;54290.72;;;-144.73;53.24
73551;BME280;61816;53.582;10.096;2023-05-31T08:16:18;54218.88;;;-144.73;52.52
73551;BME280;61816;53.582;10.096;2023-05-31T08:18:43;54233.25;;;-144.73;50.89
73551;BME280;61816;53.582;10.096;2023-05-31T08:21:10;54198.34;;;-144.73;49.78
73551;BME280;61816;53.582;10.096;2023-05-31T08:23:36;54218.88;;;-144.73;48.57
73551;BME280;61816;53.582;10.096;2023-05-31T08:26:01;54181.94;;;-144.73;48.63
73551;BME280;61816;53.582;10.096;2023-05-31T08:28:26;54214.78;;;-144.73;47.72
73551;BME280;61816;53.582;10.096;2023-05-31T08:30:52;54202.44;;;-144.73;49.84
73551;BME280;61816;53.582;10.096;2023-05-31T08:33:17;54225.03;;;-144.73;50.78
73551;BME280;61816;53.582;10.096;2023-05-31T08:35:43;54206.56;;;-144.73;49.29
73551;BME280;61816;53.582;10.096;2023-05-31T08:38:08;54194.25;;;-144.73;47.57
73551;BME280;61816;53.582;10.096;2023-05-31T08:40:34;54227.09;;;-144.73;49.15
73551;BME280;61816;53.582;10.096;2023-05-31T08:43:02;54214.78;;;-144.73;47.15
73551;BME280;61816;53.582;10.096;2023-05-31T08:45:28;54231.19;;;-144.73;47.83
73551;BME280;61816;53.582;10.096;2023-05-31T08:48:04;54194.25;;;-144.73;48.51
73551;BME280;61816;53.582;10.096;2023-05-31T08:50:32;54218.88;;;-144.73;47.19
73551;BME280;61816;53.582;10.096;2023-05-31T08:52:58;54190.13;;;-144.73;48.38
73551;BME280;61816;53.582;10.096;2023-05-31T08:55:23;54218.88;;;-144.73;50.46
73551;BME280;61816;53.582;10.096;2023-05-31T08:57:49;54188.09;;;-144.73;50.92
73551;BME280;61816;53.582;10.096;2023-05-31T09:00:16;54214.78;;;-144.73;50.05
73551;BME280;61816;53.582;10.096;2023-05-31T09:02:43;54235.28;;;-144.73;49.85
73551;BME280;61816;53.582;10.096;2023-05-31T09:05:10;54169.63;;;-144.73;48.87
73551;BME280;61816;53.582;10.096;2023-05-31T09:07:37;54268.13;;;-144.73;49.99
73551;BME280;61816;53.582;10.096;2023-05-31T09:10:03;54245.56;;;-144.73;51.31
73551;BME280;61816;53.582;10.096;2023-05-31T09:12:30;54181.94;;;-144.73;50.89
73551;BME280;61816;53.582;10.096;2023-05-31T09:14:56;54206.56;;;-144.73;49.58
73551;BME280;61816;53.582;10.096;2023-05-31T09:17:22;54177.81;;;-144.73;49.36
73551;BME280;61816;53.582;10.096;2023-05-31T09:19:52;54194.25;;;-144.73;48.91
73551;BME280;61816;53.582;10.096;2023-05-31T09:22:18;54194.25;;;-144.73;48.86
73551;BME280;61816;53.582;10.096;2023-05-31T09:24:57;54198.34;;;-144.73;48.96
73551;BME280;61816;53.582;10.096;2023-05-31T09:27:23;54169.63;;;-144.73;48.77
73551;BME280;61816;53.582;10.096;2023-05-31T09:29:53;54245.56;;;-144.73;49.14
73551;BME280;61816;53.582;10.096;2023-05-31T09:32:19;54214.78;;;-144.73;48.52
73551;BME280;61816;53.582;10.096;2023-05-31T09:34:45;54169.63;;;-144.73;49.71
73551;BME280;61816;53.582;10.096;2023-05-31T09:37:24;54222.97;;;-144.73;47.95
73551;BME280;61816;53.582;10.096;2023-05-31T09:39:56;54218.88;;;-144.73;47.44
73551;BME280;61816;53.582;10.096;2023-05-31T09:42:26;54177.81;;;-144.73;46.83
73551;BME280;61816;53.582;10.096;2023-05-31T09:44:52;54198.34;;;-144.73;46.63
73551;BME280;61816;53.582;10.096;2023-05-31T09:47:23;54210.66;;;-144.73;46.93
73551;BME280;61816;53.582;10.096;2023-05-31T09:49:49;54227.09;;;-144.73;46.98
73551;BME280;61816;53.582;10.096;2023-05-31T09:52:21;54231.19;;;-144.73;46.21
73551;BME280;61816;53.582;10.096;2023-05-31T09:54:50;54173.72;;;-144.73;46.71
73551;BME280;61816;53.582;10.096;2023-05-31T09:57:32;54165.50;;;-144.73;46.85
73551;BME280;61816;53.582;10.096;2023-05-31T09:59:59;54220.94;;;-144.73;47.52
73551;BME280;61816;53.582;10.096;2023-05-31T10:02:26;54186.03;;;-144.73;50.04
73551;BME280;61816;53.582;10.096;2023-05-31T10:04:54;54198.34;;;-144.73;47.72
73551;BME280;61816;53.582;10.096;2023-05-31T10:07:20;54194.25;;;-144.73;46.56
73551;BME280;61816;53.582;10.096;2023-05-31T10:09:49;54220.94;;;-144.73;48.84
73551;BME280;61816;53.582;10.096;2023-05-31T10:12:17;54186.03;;;-144.73;47.88
73551;BME280;61816;53.582;10.096;2023-05-31T10:14:49;54220.94;;;-144.73;46.25
73551;BME280;61816;53.582;10.096;2023-05-31T10:17:20;54214.78;;;-144.73;44.87
73551;BME280;61816;53.582;10.096;2023-05-31T10:19:54;54206.56;;;-144.73;43.96
73551;BME280;61816;53.582;10.096;2023-05-31T10:22:23;54239.41;;;-144.73;42.14
73551;BME280;61816;53.582;10.096;2023-05-31T10:24:58;54192.19;;;-144.73;39.58
73551;BME280;61816;53.582;10.096;2023-05-31T10:27:29;54175.78;;;-144.73;39.43
73551;BME280;61816;53.582;10.096;2023-05-31T10:30:02;54210.66;;;-144.73;41.18
73551;BME280;61816;53.582;10.096;2023-05-31T10:32:33;54186.03;;;-144.73;40.95
73551;BME280;61816;53.582;10.096;2023-05-31T10:34:59;54181.94;;;-144.73;40.82
73551;BME280;61816;53.582;10.096;2023-05-31T10:37:25;54132.69;;;-144.73;39.38
73551;BME280;61816;53.582;10.096;2023-05-31T10:45:14;54186.03;;;-144.73;39.35
73551;BME280;61816;53.582;10.096;2023-05-31T10:47:55;54167.56;;;-144.73;38.12
73551;BME280;61816;53.582;10.096;2023-05-31T10:50:22;54165.50;;;-144.73;38.50
73551;BME280;61816;53.582;10.096;2023-05-31T10:52:51;54192.19;;;-144.73;38.73
73551;BME280;61816;53.582;10.096;2023-05-31T10:55:18;54190.13;;;-144.73;38.95
73551;BME280;61816;53.582;10.096;2023-05-31T10:57:49;54149.09;;;-144.73;39.43
73551;BME280;61816;53.582;10.096;2023-05-31T11:00:19;54210.66;;;-144.73;38.31
73551;BME280;61816;53.582;10.096;2023-05-31T11:02:48;54165.50;;;-144.73;40.46
73551;BME280;61816;53.582;10.096;2023-05-31T11:05:24;54198.34;;;-144.73;42.35
73551;BME280;61816;53.582;10.096;2023-05-31T11:07:53;54200.41;;;-144.73;42.23
73551;BME280;61816;53.582;10.096;2023-05-31T11:10:26;54231.19;;;-144.73;42.35
73551;BME280;61816;53.582;10.096;2023-05-31T11:12:56;54173.72;;;-144.73;40.31
73551;BME280;61816;53.582;10.096;2023-05-31T11:15:22;54192.19;;;-144.73;39.64
73551;BME280;61816;53.582;10.096;2023-05-31T11:17:51;54177.81;;;-144.73;38.26
73551;BME280;61816;53.582;10.096;2023-05-31T11:20:18;54212.72;;;-144.73;38.71
73551;BME280;61816;53.582;10.096;2023-05-31T11:22:44;54161.41;;;-144.73;37.00
73551;BME280;61816;53.582;10.096;2023-05-31T11:25:18;54165.50;;;-144.73;36.62
73551;BME280;61816;53.582;10.096;2023-05-31T11:27:45;54169.63;;;-144.73;36.30
73551;BME280;61816;53.582;10.096;2023-05-31T11:30:15;54145.00;;;-144.73;36.87
73551;BME280;61816;53.582;10.096;2023-05-31T11:35:14;54165.50;;;-144.73;38.50
73551;BME280;61816;53.582;10.096;2023-05-31T11:37:41;54186.03;;;-144.73;37.71
73551;BME280;61816;53.582;10.096;2023-05-31T11:40:09;54165.50;;;-144.73;38.12
73551;BME280;61816;53.582;10.096;2023-05-31T11:42:40;54153.19;;;-144.73;38.73
73551;BME280;61816;53.582;10.096;2023-05-31T11:45:07;54196.28;;;-144.73;37.82
73551;BME280;61816;53.582;10.096;2023-05-31T11:50:03;54149.09;;;-144.73;39.09
73551;BME280;61816;53.582;10.096;2023-05-31T11:52:29;54161.41;;;-144.73;39.49
73551;BME280;61816;53.582;10.096;2023-05-31T11:54:54;54169.63;;;-144.73;41.06
73551;BME280;61816;53.582;10.096;2023-05-31T11:57:29;54186.03;;;-144.73;43.94
73551;BME280;61816;53.582;10.096;2023-05-31T12:00:02;54198.34;;;-144.73;43.44
73551;BME280;61816;53.582;10.096;2023-05-31T12:02:32;54186.03;;;-144.73;42.63
73551;BME280;61816;53.582;10.096;2023-05-31T12:04:57;54161.41;;;-144.73;43.29
73551;BME280;61816;53.582;10.096;2023-05-31T12:07:23;54181.94;;;-144.73;42.97
73551;BME280;61816;53.582;10.096;2023-05-31T12:09:48;54153.19;;;-144.73;45.44
73551;BME280;61816;53.582;10.096;2023-05-31T12:12:13;54183.97;;;-144.73;46.28
73551;BME280;61816;53.582;10.096;2023-05-31T12:14:49;54145.00;;;-144.73;44.94
73551;BME280;61816;53.582;10.096;2023-05-31T12:17:16;54173.72;;;-144.73;45.05
73551;BME280;61816;53.582;10.096;2023-05-31T12:19:41;54120.34;;;-144.73;45.18
73551;BME280;61816;53.582;10.096;2023-05-31T12:22:06;54149.09;;;-144.73;44.51
73551;BME280;61816;53.582;10.096;2023-05-31T12:24:32;54177.81;;;-144.73;45.54
73551;BME280;61816;53.582;10.096;2023-05-31T12:26:57;54145.00;;;-144.73;43.89
73551;BME280;61816;53.582;10.096;2023-05-31T12:29:30;54177.81;;;-144.73;42.76
73551;BME280;61816;53.582;10.096;2023-05-31T12:32:04;54169.63;;;-144.73;44.25
73551;BME280;61816;53.582;10.096;2023-05-31T12:34:33;54169.63;;;-144.73;45.64
73551;BME280;61816;53.582;10.096;2023-05-31T12:37:04;54169.63;;;-144.73;46.97